createdAt,value
2022-10-31T00:00:02.144Z,11.95
2022-10-31T00:01:10.994Z,11.94
2022-10-31T00:02:12.577Z,11.93
2022-10-31T00:03:14.080Z,11.91
2022-10-31T00:04:15.851Z,11.87
2022-10-31T00:05:17.365Z,11.86
2022-10-31T00:06:19.347Z,11.88
2022-10-31T00:07:20.773Z,11.85
2022-10-31T00:08:22.267Z,11.84
2022-10-31T00:09:23.709Z,11.85
2022-10-31T00:10:25.389Z,11.84
2022-10-31T00:11:27.515Z,11.82
2022-10-31T00:12:28.984Z,11.83
2022-10-31T00:13:30.818Z,11.79
2022-10-31T00:14:32.240Z,11.80
2022-10-31T00:15:38.211Z,11.80
2022-10-31T00:16:41.596Z,11.80
2022-10-31T00:17:43.092Z,11.78
2022-10-31T00:18:44.796Z,11.77
2022-10-31T00:19:46.354Z,11.75
2022-10-31T00:20:47.812Z,11.73
2022-10-31T00:21:49.276Z,11.72
2022-10-31T00:22:50.733Z,11.69
2022-10-31T00:23:52.545Z,11.69
2022-10-31T00:24:53.962Z,11.66
2022-10-31T00:25:55.670Z,11.67
2022-10-31T00:26:57.081Z,11.67
2022-10-31T00:27:58.669Z,11.67
2022-10-31T00:29:01.685Z,11.65
2022-10-31T00:30:03.407Z,11.64
2022-10-31T00:31:07.696Z,11.63
2022-10-31T00:32:09.150Z,11.62
2022-10-31T00:33:10.601Z,11.61
2022-10-31T00:34:12.061Z,11.60
2022-10-31T00:35:13.690Z,11.60
2022-10-31T00:36:17.961Z,11.57
2022-10-31T00:37:19.406Z,11.57
2022-10-31T00:38:21.600Z,11.56
2022-10-31T00:39:23.100Z,11.56
2022-10-31T00:40:24.556Z,11.53
2022-10-31T00:41:26.013Z,11.50
2022-10-31T00:42:27.572Z,11.50
2022-10-31T00:43:29.330Z,11.49
2022-10-31T00:44:30.742Z,11.45
2022-10-31T00:45:32.182Z,11.45
2022-10-31T00:46:33.628Z,11.43
2022-10-31T00:47:35.237Z,11.44
2022-10-31T00:48:36.743Z,11.44
2022-10-31T00:49:38.176Z,11.46
2022-10-31T00:50:40.133Z,11.47
2022-10-31T00:51:41.733Z,11.48
2022-10-31T00:52:43.177Z,11.46
2022-10-31T00:53:45.232Z,11.45
2022-10-31T00:54:46.719Z,11.45
2022-10-31T00:55:48.482Z,11.40
2022-10-31T00:56:50.652Z,11.36
2022-10-31T00:57:52.202Z,11.36
2022-10-31T00:58:54.223Z,11.35
2022-10-31T00:59:55.689Z,11.37
2022-10-31T01:00:57.373Z,11.38
2022-10-31T01:01:59.130Z,11.41
2022-10-31T01:03:01.396Z,11.42
2022-10-31T01:04:03.435Z,11.41
2022-10-31T01:05:05.159Z,11.40
2022-10-31T01:06:10.200Z,11.38
2022-10-31T01:07:13.251Z,11.37
2022-10-31T01:08:14.731Z,11.37
2022-10-31T01:09:16.228Z,11.34
2022-10-31T01:10:18.965Z,11.34
2022-10-31T01:11:23.399Z,11.34
2022-10-31T01:12:24.853Z,11.34
2022-10-31T01:13:26.310Z,11.34
2022-10-31T01:14:27.789Z,11.31
2022-10-31T01:15:29.216Z,11.26
2022-10-31T01:16:30.736Z,11.25
2022-10-31T01:17:32.209Z,11.21
2022-10-31T01:18:34.421Z,11.18
2022-10-31T01:19:35.870Z,11.17
2022-10-31T01:20:37.297Z,11.16
2022-10-31T01:21:38.737Z,11.14
2022-10-31T01:22:40.149Z,11.11
2022-10-31T01:23:42.296Z,11.12
2022-10-31T01:24:43.775Z,11.09
2022-10-31T01:25:45.266Z,11.04
2022-10-31T01:26:46.754Z,11.06
2022-10-31T01:27:48.228Z,11.07
2022-10-31T01:28:53.426Z,11.08
2022-10-31T01:29:54.913Z,11.10
2022-10-31T01:30:56.449Z,11.09
2022-10-31T01:31:57.925Z,11.11
2022-10-31T01:32:59.914Z,11.14
2022-10-31T01:34:01.872Z,11.16
2022-10-31T01:35:03.706Z,11.18
2022-10-31T01:36:19.341Z,11.16
2022-10-31T01:37:20.745Z,11.14
2022-10-31T01:38:23.317Z,11.09
2022-10-31T01:39:24.789Z,11.07
2022-10-31T01:40:30.524Z,11.07
2022-10-31T01:41:34.480Z,11.05
2022-10-31T01:42:35.937Z,11.05
2022-10-31T01:44:23.736Z,11.06
2022-10-31T01:45:25.488Z,11.08
2022-10-31T01:46:40.443Z,11.07
2022-10-31T01:47:46.957Z,11.06
2022-10-31T01:48:49.440Z,11.07
2022-10-31T01:49:55.669Z,11.04
2022-10-31T01:50:57.179Z,11.05
2022-10-31T01:52:07.156Z,11.06
2022-10-31T01:53:10.896Z,11.10
2022-10-31T01:54:16.741Z,11.14
2022-10-31T01:55:23.167Z,11.18
2022-10-31T01:56:26.513Z,11.19
2022-10-31T01:57:30.376Z,11.20
2022-10-31T01:58:32.810Z,11.19
2022-10-31T01:59:39.198Z,11.19
2022-10-31T02:00:44.672Z,11.18
2022-10-31T02:01:47.873Z,11.18
2022-10-31T02:02:51.268Z,11.18
2022-10-31T02:03:53.008Z,11.18
2022-10-31T02:04:55.325Z,11.12
2022-10-31T02:05:58.628Z,11.13
2022-10-31T02:07:08.445Z,11.12
2022-10-31T02:08:33.767Z,11.14
2022-10-31T02:09:36.954Z,11.14
2022-10-31T02:10:38.686Z,11.15
2022-10-31T02:11:42.046Z,11.15
2022-10-31T02:12:45.287Z,11.17
2022-10-31T02:13:48.379Z,11.20
2022-10-31T02:14:49.822Z,11.20
2022-10-31T02:15:55.238Z,11.20
2022-10-31T02:16:57.257Z,11.20
2022-10-31T02:17:59.797Z,11.19
2022-10-31T02:19:02.170Z,11.19
2022-10-31T02:20:25.817Z,11.16
2022-10-31T02:21:50.845Z,11.13
2022-10-31T02:23:01.342Z,11.11
2022-10-31T02:24:24.989Z,11.10
2022-10-31T02:25:41.650Z,11.11
2022-10-31T02:26:58.011Z,11.13
2022-10-31T02:28:21.471Z,11.13
2022-10-31T02:29:34.683Z,11.10
2022-10-31T02:30:51.032Z,11.08
2022-10-31T02:31:58.493Z,11.10
2022-10-31T02:33:16.222Z,11.10
2022-10-31T02:34:32.373Z,11.05
2022-10-31T02:35:53.252Z,11.07
2022-10-31T02:36:59.627Z,11.06
2022-10-31T02:38:38.685Z,11.03
2022-10-31T02:40:24.977Z,11.04
2022-10-31T02:42:17.625Z,11.06
2022-10-31T02:43:19.308Z,11.02
2022-10-31T02:44:36.477Z,11.02
2022-10-31T02:46:08.353Z,10.99
2022-10-31T02:47:14.621Z,10.98
2022-10-31T02:48:20.536Z,10.97
2022-10-31T02:49:47.330Z,10.94
2022-10-31T02:50:56.042Z,10.90
2022-10-31T02:51:57.513Z,10.88
2022-10-31T02:52:59.092Z,10.88
2022-10-31T02:54:00.576Z,10.89
2022-10-31T02:55:34.684Z,10.84
2022-10-31T02:56:36.106Z,10.84
2022-10-31T02:57:39.835Z,10.83
2022-10-31T02:58:47.890Z,10.81
2022-10-31T02:59:54.445Z,10.81
2022-10-31T03:01:48.454Z,10.79
2022-10-31T03:03:15.874Z,10.79
2022-10-31T03:04:22.501Z,10.77
2022-10-31T03:05:29.137Z,10.77
2022-10-31T03:06:30.536Z,10.77
2022-10-31T03:07:58.611Z,10.73
2022-10-31T03:09:26.873Z,10.70
2022-10-31T03:10:41.100Z,10.70
2022-10-31T03:11:57.578Z,10.71
2022-10-31T03:13:27.087Z,10.71
2022-10-31T03:15:09.266Z,10.72
2022-10-31T03:16:30.127Z,10.69
2022-10-31T03:17:48.504Z,10.67
2022-10-31T03:19:12.372Z,10.67
2022-10-31T03:20:15.074Z,10.66
2022-10-31T03:21:41.099Z,10.66
2022-10-31T03:22:44.038Z,10.66
2022-10-31T03:23:47.437Z,10.63
2022-10-31T03:24:51.987Z,10.58
2022-10-31T03:25:55.548Z,10.58
2022-10-31T03:27:00.415Z,10.57
2022-10-31T03:28:04.002Z,10.58
2022-10-31T03:29:08.664Z,10.59
2022-10-31T03:30:10.802Z,10.57
2022-10-31T03:31:17.567Z,10.57
2022-10-31T03:32:42.485Z,10.51
2022-10-31T03:33:47.159Z,10.46
2022-10-31T03:34:51.481Z,10.41
2022-10-31T03:35:56.366Z,10.40
2022-10-31T03:37:02.065Z,10.39
2022-10-31T03:38:07.621Z,10.37
2022-10-31T03:39:14.156Z,10.38
2022-10-31T03:40:18.788Z,10.34
2022-10-31T03:41:24.810Z,10.31
2022-10-31T03:42:29.910Z,10.30
2022-10-31T03:43:37.773Z,10.28
2022-10-31T03:44:44.800Z,10.31
2022-10-31T03:45:47.960Z,10.29
2022-10-31T03:46:49.799Z,10.30
2022-10-31T03:47:52.541Z,10.32
2022-10-31T03:48:54.560Z,10.33
2022-10-31T03:49:56.675Z,10.35
2022-10-31T03:51:03.951Z,10.36
2022-10-31T03:52:14.444Z,10.37
2022-10-31T03:53:27.984Z,10.38
2022-10-31T03:54:39.580Z,10.33
2022-10-31T03:55:53.551Z,10.32
2022-10-31T03:57:01.737Z,10.30
2022-10-31T03:58:30.386Z,10.27
2022-10-31T03:59:40.008Z,10.20
2022-10-31T04:00:45.501Z,10.18
2022-10-31T04:01:53.131Z,10.18
2022-10-31T04:03:01.194Z,10.21
2022-10-31T04:04:03.512Z,10.22
2022-10-31T04:05:06.744Z,10.24
2022-10-31T04:06:13.003Z,10.27
2022-10-31T04:07:15.635Z,10.28
2022-10-31T04:08:21.392Z,10.29
2022-10-31T04:09:24.134Z,10.27
2022-10-31T04:10:31.936Z,10.26
2022-10-31T04:11:41.286Z,10.26
2022-10-31T04:12:48.564Z,10.24
2022-10-31T04:13:50.845Z,10.20
2022-10-31T04:14:53.789Z,10.23
2022-10-31T04:15:57.378Z,10.25
2022-10-31T04:16:58.919Z,10.24
2022-10-31T04:18:02.780Z,10.24
2022-10-31T04:19:05.206Z,10.22
2022-10-31T04:20:07.439Z,10.25
2022-10-31T04:21:09.235Z,10.27
2022-10-31T04:22:11.232Z,10.27
2022-10-31T04:23:23.737Z,10.28
2022-10-31T04:24:25.227Z,10.30
2022-10-31T04:25:26.669Z,10.27
2022-10-31T04:26:28.247Z,10.27
2022-10-31T04:27:30.259Z,10.25
2022-10-31T04:28:32.376Z,10.27
2022-10-31T04:29:33.968Z,10.28
2022-10-31T04:30:35.359Z,10.28
2022-10-31T04:31:36.740Z,10.27
2022-10-31T04:32:38.165Z,10.24
2022-10-31T04:33:39.910Z,10.22
2022-10-31T04:34:41.365Z,10.20
2022-10-31T04:35:42.759Z,10.19
2022-10-31T04:36:44.184Z,10.18
2022-10-31T04:37:45.924Z,10.19
2022-10-31T04:38:47.343Z,10.20
2022-10-31T04:39:48.784Z,10.18
2022-10-31T04:40:50.200Z,10.16
2022-10-31T04:41:51.620Z,10.17
2022-10-31T04:42:53.398Z,10.12
2022-10-31T04:43:55.264Z,10.12
2022-10-31T04:44:56.927Z,10.15
2022-10-31T04:45:58.350Z,10.14
2022-10-31T04:46:59.772Z,10.16
2022-10-31T04:48:02.097Z,10.15
2022-10-31T04:49:03.882Z,10.12
2022-10-31T04:50:05.726Z,10.13
2022-10-31T04:51:07.268Z,10.12
2022-10-31T04:52:09.117Z,10.07
2022-10-31T04:53:10.967Z,10.02
2022-10-31T04:54:12.437Z,9.97
2022-10-31T04:55:14.676Z,9.96
2022-10-31T04:56:16.108Z,9.97
2022-10-31T04:57:17.611Z,10.04
2022-10-31T04:58:19.053Z,10.00
2022-10-31T04:59:20.493Z,10.03
2022-10-31T05:00:23.462Z,10.04
2022-10-31T05:01:24.849Z,10.01
2022-10-31T05:02:26.446Z,9.99
2022-10-31T05:03:28.366Z,10.03
2022-10-31T05:04:29.781Z,10.05
2022-10-31T05:05:32.350Z,10.04
2022-10-31T05:06:33.852Z,10.03
2022-10-31T05:07:40.552Z,9.99
2022-10-31T05:08:41.991Z,9.97
2022-10-31T05:09:43.412Z,9.93
2022-10-31T05:10:44.855Z,9.92
2022-10-31T05:11:46.306Z,9.94
2022-10-31T05:12:53.173Z,9.92
2022-10-31T05:13:54.627Z,9.91
2022-10-31T05:14:56.054Z,9.90
2022-10-31T05:15:57.637Z,9.94
2022-10-31T05:16:59.109Z,9.92
2022-10-31T05:18:01.193Z,9.94
2022-10-31T05:19:02.837Z,9.93
2022-10-31T05:20:04.691Z,9.94
2022-10-31T05:21:06.144Z,9.92
2022-10-31T05:22:07.576Z,9.94
2022-10-31T05:23:09.083Z,9.89
2022-10-31T05:24:10.557Z,9.90
2022-10-31T05:25:12.238Z,9.91
2022-10-31T05:26:13.798Z,9.93
2022-10-31T05:27:15.546Z,9.94
2022-10-31T05:28:17.301Z,9.94
2022-10-31T05:29:18.706Z,9.94
2022-10-31T05:30:28.409Z,9.99
2022-10-31T05:31:29.860Z,9.99
2022-10-31T05:32:31.379Z,9.95
2022-10-31T05:33:32.876Z,9.97
2022-10-31T05:34:34.334Z,9.98
2022-10-31T05:35:35.872Z,10.01
2022-10-31T05:36:37.301Z,10.03
2022-10-31T05:37:39.686Z,10.03
2022-10-31T05:38:41.157Z,10.05
2022-10-31T05:39:42.591Z,10.07
2022-10-31T05:40:44.091Z,10.07
2022-10-31T05:41:45.588Z,10.07
2022-10-31T05:42:47.438Z,10.08
2022-10-31T05:43:48.903Z,10.04
2022-10-31T05:44:50.339Z,10.00
2022-10-31T05:45:56.460Z,9.98
2022-10-31T05:46:57.924Z,9.94
2022-10-31T05:48:02.006Z,9.95
2022-10-31T05:49:03.678Z,9.93
2022-10-31T05:50:06.382Z,9.90
2022-10-31T05:51:07.815Z,9.90
2022-10-31T05:52:09.602Z,9.88
2022-10-31T05:53:11.248Z,9.88
2022-10-31T05:54:15.866Z,9.86
2022-10-31T05:55:17.588Z,9.88
2022-10-31T05:56:19.019Z,9.91
2022-10-31T05:57:20.805Z,9.93
2022-10-31T05:58:22.267Z,9.93
2022-10-31T05:59:23.678Z,9.91
2022-10-31T06:00:26.372Z,9.89
2022-10-31T06:01:27.861Z,9.88
2022-10-31T06:02:33.499Z,9.86
2022-10-31T06:03:34.930Z,9.87
2022-10-31T06:04:36.548Z,9.88
2022-10-31T06:05:38.140Z,9.90
2022-10-31T06:06:39.554Z,9.91
2022-10-31T06:07:41.468Z,9.91
2022-10-31T06:08:42.906Z,9.90
2022-10-31T06:09:44.394Z,9.89
2022-10-31T06:10:45.839Z,9.87
2022-10-31T06:11:49.921Z,9.84
2022-10-31T06:12:51.400Z,9.83
2022-10-31T06:13:52.809Z,9.83
2022-10-31T06:14:54.244Z,9.82
2022-10-31T06:15:55.686Z,9.79
2022-10-31T06:16:57.262Z,9.75
2022-10-31T06:18:04.089Z,9.75
2022-10-31T06:19:05.816Z,9.74
2022-10-31T06:20:08.253Z,9.75
2022-10-31T06:21:11.513Z,9.74
2022-10-31T06:22:15.450Z,9.71
2022-10-31T06:23:16.925Z,9.68
2022-10-31T06:24:18.332Z,9.64
2022-10-31T06:25:19.802Z,9.63
2022-10-31T06:26:21.224Z,9.63
2022-10-31T06:27:23.538Z,9.61
2022-10-31T06:28:25.055Z,9.62
2022-10-31T06:29:26.498Z,9.61
2022-10-31T06:30:27.965Z,9.61
2022-10-31T06:31:29.473Z,9.67
2022-10-31T06:32:30.935Z,9.74
2022-10-31T06:33:32.437Z,9.77
2022-10-31T06:34:33.886Z,9.84
2022-10-31T06:35:35.293Z,9.88
2022-10-31T06:36:37.052Z,9.89
2022-10-31T06:37:40.018Z,9.92
2022-10-31T06:38:41.327Z,9.94
2022-10-31T06:39:42.643Z,9.96
2022-10-31T06:40:44.077Z,9.95
2022-10-31T06:41:48.542Z,9.95
2022-10-31T06:43:02.167Z,9.96
2022-10-31T06:44:06.535Z,9.97
2022-10-31T06:45:10.514Z,10.00
2022-10-31T06:46:11.977Z,10.02
2022-10-31T06:47:13.416Z,9.98
2022-10-31T06:48:17.653Z,9.97
2022-10-31T06:49:19.762Z,9.97
2022-10-31T06:50:22.045Z,10.00
2022-10-31T06:51:23.588Z,10.01
2022-10-31T06:52:25.037Z,10.01
2022-10-31T06:53:27.775Z,10.01
2022-10-31T06:54:29.280Z,10.01
2022-10-31T06:55:30.842Z,10.01
2022-10-31T06:56:32.386Z,10.04
2022-10-31T06:57:33.776Z,10.04
2022-10-31T06:58:35.207Z,10.06
2022-10-31T06:59:36.649Z,10.07
2022-10-31T07:00:38.372Z,10.09
2022-10-31T07:01:40.267Z,10.11
2022-10-31T07:02:41.817Z,10.15
2022-10-31T07:03:43.257Z,10.17
2022-10-31T07:04:44.693Z,10.18
2022-10-31T07:05:46.177Z,10.21
2022-10-31T07:06:51.759Z,10.23
2022-10-31T07:07:58.539Z,10.24
2022-10-31T07:09:00.172Z,10.22
2022-10-31T07:10:01.633Z,10.24
2022-10-31T07:11:03.337Z,10.24
2022-10-31T07:12:06.096Z,10.23
2022-10-31T07:13:11.709Z,10.24
2022-10-31T07:14:13.151Z,10.26
2022-10-31T07:15:14.698Z,10.28
2022-10-31T07:16:16.213Z,10.28
2022-10-31T07:17:17.617Z,10.30
2022-10-31T07:18:19.038Z,10.31
2022-10-31T07:19:20.572Z,10.35
2022-10-31T07:20:22.039Z,10.37
2022-10-31T07:21:23.843Z,10.40
2022-10-31T07:22:25.282Z,10.42
2022-10-31T07:23:26.779Z,10.43
2022-10-31T07:24:28.508Z,10.44
2022-10-31T07:25:30.185Z,10.45
2022-10-31T07:26:31.950Z,10.48
2022-10-31T07:27:42.785Z,10.49
2022-10-31T07:28:44.544Z,10.52
2022-10-31T07:29:45.984Z,10.52
2022-10-31T07:30:54.063Z,10.54
2022-10-31T07:31:55.791Z,10.55
2022-10-31T07:32:57.464Z,10.58
2022-10-31T07:33:58.885Z,10.58
2022-10-31T07:35:00.304Z,10.59
2022-10-31T07:36:01.727Z,10.60
2022-10-31T07:37:03.182Z,10.60
2022-10-31T07:38:09.545Z,10.61
2022-10-31T07:39:10.989Z,10.62
2022-10-31T07:40:13.245Z,10.66
2022-10-31T07:41:15.012Z,10.72
2022-10-31T07:42:16.440Z,10.77
2022-10-31T07:43:17.974Z,10.84
2022-10-31T07:44:19.440Z,10.86
2022-10-31T07:45:22.069Z,10.91
2022-10-31T07:46:24.006Z,10.95
2022-10-31T07:47:25.410Z,10.98
2022-10-31T07:48:26.894Z,11.03
2022-10-31T07:49:28.402Z,11.05
2022-10-31T07:50:31.625Z,11.09
2022-10-31T07:51:33.388Z,11.11
2022-10-31T07:52:34.887Z,11.13
2022-10-31T07:53:36.321Z,11.18
2022-10-31T07:54:37.754Z,11.23
2022-10-31T07:55:39.773Z,11.30
2022-10-31T07:56:41.271Z,11.37
2022-10-31T07:57:43.054Z,11.42
2022-10-31T07:58:44.456Z,11.48
2022-10-31T07:59:45.899Z,11.51
2022-10-31T08:00:48.525Z,11.57
2022-10-31T08:01:50.110Z,11.64
2022-10-31T08:03:19.030Z,11.68
2022-10-31T08:04:20.513Z,11.72
2022-10-31T08:05:21.944Z,11.78
2022-10-31T08:06:23.453Z,11.83
2022-10-31T08:07:25.068Z,11.91
2022-10-31T08:08:30.334Z,11.93
2022-10-31T08:09:32.598Z,11.99
2022-10-31T08:10:37.909Z,12.01
2022-10-31T08:11:39.323Z,12.05
2022-10-31T08:12:40.839Z,12.11
2022-10-31T08:13:43.919Z,12.18
2022-10-31T08:14:48.617Z,12.23
2022-10-31T08:15:52.715Z,12.27
2022-10-31T08:16:54.767Z,12.34
2022-10-31T08:17:56.310Z,12.40
2022-10-31T08:18:57.843Z,12.45
2022-10-31T08:19:59.314Z,12.48
2022-10-31T08:21:01.030Z,12.48
2022-10-31T08:22:02.468Z,12.46
2022-10-31T08:23:05.563Z,12.48
2022-10-31T08:24:07.208Z,12.47
2022-10-31T08:25:09.572Z,12.46
2022-10-31T08:26:11.278Z,12.46
2022-10-31T08:27:12.904Z,12.48
2022-10-31T08:28:15.249Z,12.52
2022-10-31T08:29:16.936Z,12.55
2022-10-31T08:30:19.095Z,12.57
2022-10-31T08:31:21.189Z,12.58
2022-10-31T08:32:22.597Z,12.57
2022-10-31T08:33:23.989Z,12.59
2022-10-31T08:34:25.452Z,12.58
2022-10-31T08:35:26.886Z,12.57
2022-10-31T08:36:28.987Z,12.54
2022-10-31T08:37:30.377Z,12.52
2022-10-31T08:38:31.812Z,12.53
2022-10-31T08:39:33.280Z,12.54
2022-10-31T08:40:36.114Z,12.54
2022-10-31T08:41:37.894Z,12.56
2022-10-31T08:42:39.339Z,12.54
2022-10-31T08:43:41.858Z,12.55
2022-10-31T08:44:43.320Z,12.56
2022-10-31T08:45:48.120Z,12.56
2022-10-31T08:46:49.633Z,12.56
2022-10-31T08:47:51.522Z,12.59
2022-10-31T08:48:53.079Z,12.62
2022-10-31T08:49:54.539Z,12.61
2022-10-31T08:51:01.282Z,12.66
2022-10-31T08:52:02.800Z,12.68
2022-10-31T08:53:10.479Z,12.74
2022-10-31T08:54:11.921Z,12.77
2022-10-31T08:55:13.492Z,12.80
2022-10-31T08:56:15.246Z,12.85
2022-10-31T08:57:16.632Z,12.86
2022-10-31T08:58:20.373Z,12.90
2022-10-31T08:59:21.821Z,12.93
2022-10-31T09:00:23.732Z,12.89
2022-10-31T09:01:25.274Z,12.91
2022-10-31T09:02:26.950Z,12.90
2022-10-31T09:03:32.007Z,12.88
2022-10-31T09:04:33.436Z,12.91
2022-10-31T09:05:35.006Z,12.94
2022-10-31T09:06:38.168Z,12.90
2022-10-31T09:07:39.830Z,12.91
2022-10-31T09:08:41.266Z,12.97
2022-10-31T09:09:42.713Z,12.97
2022-10-31T09:10:45.616Z,13.01
2022-10-31T09:11:47.326Z,13.03
2022-10-31T09:12:55.116Z,13.04
2022-10-31T09:13:56.542Z,13.06
2022-10-31T09:14:58.041Z,13.09
2022-10-31T09:16:00.119Z,13.10
2022-10-31T09:17:01.540Z,13.11
2022-10-31T09:18:04.157Z,13.14
2022-10-31T09:19:11.084Z,13.16
2022-10-31T09:20:13.412Z,13.22
2022-10-31T09:21:14.912Z,13.25
2022-10-31T09:22:16.477Z,13.27
2022-10-31T09:23:20.923Z,13.32
2022-10-31T09:24:26.819Z,13.33
2022-10-31T09:25:28.968Z,13.38
2022-10-31T09:26:31.905Z,13.42
2022-10-31T09:27:33.237Z,13.46
2022-10-31T09:28:34.850Z,13.50
2022-10-31T09:29:36.292Z,13.57
2022-10-31T09:30:38.221Z,13.63
2022-10-31T09:31:44.736Z,13.67
2022-10-31T09:32:49.597Z,13.66
2022-10-31T09:33:53.471Z,13.68
2022-10-31T09:34:54.907Z,13.76
2022-10-31T09:35:56.711Z,13.86
2022-10-31T09:36:58.195Z,13.94
2022-10-31T09:38:05.395Z,13.96
2022-10-31T09:39:08.314Z,14.02
2022-10-31T09:40:09.956Z,14.04
2022-10-31T09:41:32.410Z,14.31
2022-10-31T09:43:17.588Z,14.69
2022-10-31T09:44:27.914Z,14.84
2022-10-31T09:46:03.285Z,14.89
2022-10-31T09:47:24.096Z,14.83
2022-10-31T09:48:50.175Z,14.79
2022-10-31T09:50:48.816Z,14.80
2022-10-31T09:52:02.162Z,14.60
2022-10-31T09:53:10.902Z,14.55
2022-10-31T09:54:35.078Z,14.58
2022-10-31T09:55:44.615Z,14.54
2022-10-31T09:56:46.771Z,14.58
2022-10-31T09:57:49.431Z,14.59
2022-10-31T09:58:56.553Z,14.64
2022-10-31T09:59:58.829Z,14.68
2022-10-31T10:01:02.926Z,14.70
2022-10-31T10:02:20.124Z,14.74
2022-10-31T10:03:40.204Z,14.73
2022-10-31T10:04:56.036Z,14.77
2022-10-31T10:06:22.571Z,14.79
2022-10-31T10:07:31.342Z,14.80
2022-10-31T10:08:35.669Z,14.84
2022-10-31T10:09:37.503Z,14.87
2022-10-31T10:10:53.076Z,14.84
2022-10-31T10:12:09.782Z,14.89
2022-10-31T10:13:23.472Z,14.93
2022-10-31T10:14:30.602Z,14.99
2022-10-31T10:15:42.591Z,14.98
2022-10-31T10:17:06.073Z,15.03
2022-10-31T10:18:15.323Z,15.01
2022-10-31T10:19:35.280Z,15.06
2022-10-31T10:20:47.784Z,15.10
2022-10-31T10:22:01.407Z,15.07
2022-10-31T10:23:20.316Z,15.07
2022-10-31T10:24:39.711Z,15.08
2022-10-31T10:25:45.996Z,15.05
2022-10-31T10:27:13.323Z,15.02
2022-10-31T10:28:20.281Z,15.08
2022-10-31T10:29:34.093Z,15.06
2022-10-31T10:30:52.210Z,15.15
2022-10-31T10:31:59.585Z,15.13
2022-10-31T10:33:05.990Z,15.13
2022-10-31T10:34:30.221Z,15.09
2022-10-31T10:35:51.844Z,15.24
2022-10-31T10:37:03.235Z,15.29
2022-10-31T10:38:36.883Z,15.40
2022-10-31T10:39:44.919Z,15.52
2022-10-31T10:40:47.696Z,15.56
2022-10-31T10:42:09.717Z,15.61
2022-10-31T10:43:25.481Z,15.69
2022-10-31T10:44:45.284Z,15.75
2022-10-31T10:46:20.570Z,15.80
2022-10-31T10:47:41.375Z,15.82
2022-10-31T10:48:44.791Z,15.80
2022-10-31T10:49:51.556Z,15.77
2022-10-31T10:50:53.763Z,15.82
2022-10-31T10:52:20.128Z,15.84
2022-10-31T10:53:38.517Z,15.87
2022-10-31T10:54:47.275Z,15.93
2022-10-31T10:55:57.539Z,15.92
2022-10-31T10:57:19.620Z,15.85
2022-10-31T10:58:21.083Z,15.86
2022-10-31T10:59:25.926Z,15.88
2022-10-31T11:00:37.283Z,15.89
2022-10-31T11:01:41.299Z,15.93
2022-10-31T11:02:46.423Z,16.00
2022-10-31T11:03:50.344Z,16.07
2022-10-31T11:04:56.762Z,16.15
2022-10-31T11:06:03.035Z,16.21
2022-10-31T11:07:10.310Z,16.24
2022-10-31T11:08:13.017Z,16.23
2022-10-31T11:09:17.712Z,16.28
2022-10-31T11:10:19.646Z,16.28
2022-10-31T11:11:31.730Z,16.37
2022-10-31T11:12:34.857Z,16.39
2022-10-31T11:13:37.191Z,16.38
2022-10-31T11:14:50.477Z,16.36
2022-10-31T11:16:08.042Z,16.36
2022-10-31T11:17:18.767Z,16.37
2022-10-31T11:19:32.690Z,16.42
2022-10-31T11:20:37.163Z,16.44
2022-10-31T11:21:39.932Z,16.47
2022-10-31T11:22:47.720Z,16.45
2022-10-31T11:23:49.152Z,16.48
2022-10-31T11:24:50.579Z,16.47
2022-10-31T11:26:01.370Z,16.49
2022-10-31T11:27:31.897Z,16.44
2022-10-31T11:28:35.846Z,16.47
2022-10-31T11:29:37.749Z,16.50
2022-10-31T11:30:57.948Z,16.51
2022-10-31T11:32:01.638Z,16.53
2022-10-31T11:33:04.611Z,16.57
2022-10-31T11:34:15.486Z,16.61
2022-10-31T11:35:19.502Z,16.64
2022-10-31T11:36:31.419Z,16.64
2022-10-31T11:37:36.610Z,16.65
2022-10-31T11:38:42.587Z,16.67
2022-10-31T11:39:46.602Z,16.68
2022-10-31T11:41:01.794Z,16.71
2022-10-31T11:42:08.700Z,16.77
2022-10-31T11:43:17.963Z,16.76
2022-10-31T11:44:23.547Z,16.75
2022-10-31T11:45:24.910Z,16.78
2022-10-31T11:46:40.860Z,16.80
2022-10-31T11:47:47.314Z,16.79
2022-10-31T11:48:54.949Z,16.82
2022-10-31T11:49:58.594Z,16.84
2022-10-31T11:51:00.089Z,16.88
2022-10-31T11:52:25.194Z,16.93
2022-10-31T11:53:33.756Z,16.94
2022-10-31T11:54:46.288Z,16.97
2022-10-31T11:56:00.999Z,17.04
2022-10-31T11:57:03.908Z,17.10
2022-10-31T11:58:05.660Z,17.10
2022-10-31T11:59:23.336Z,17.12
2022-10-31T12:00:33.585Z,17.16
2022-10-31T12:01:36.352Z,17.18
2022-10-31T12:02:39.204Z,17.23
2022-10-31T12:03:55.060Z,17.29
2022-10-31T12:05:05.860Z,17.32
2022-10-31T12:06:19.833Z,17.38
2022-10-31T12:07:21.326Z,17.40
2022-10-31T12:08:31.154Z,17.44
2022-10-31T12:09:37.874Z,17.49
2022-10-31T12:10:45.616Z,17.49
2022-10-31T12:12:18.806Z,17.47
2022-10-31T12:13:34.149Z,17.51
2022-10-31T12:15:03.902Z,17.57
2022-10-31T12:16:19.535Z,17.56
2022-10-31T12:17:27.379Z,17.59
2022-10-31T12:18:47.666Z,17.64
2022-10-31T12:20:04.146Z,17.72
2022-10-31T12:21:23.726Z,17.78
2022-10-31T12:22:48.102Z,17.79
2022-10-31T12:24:04.896Z,17.80
2022-10-31T12:25:43.760Z,17.83
2022-10-31T12:26:51.182Z,17.83
2022-10-31T12:28:05.815Z,17.83
2022-10-31T12:29:36.186Z,17.87
2022-10-31T12:31:04.281Z,17.90
2022-10-31T12:32:14.791Z,17.93
2022-10-31T12:33:52.922Z,17.99
2022-10-31T12:35:14.818Z,17.99
2022-10-31T12:36:40.336Z,18.03
2022-10-31T12:38:04.046Z,18.05
2022-10-31T12:39:24.506Z,18.08
2022-10-31T12:40:52.448Z,18.11
2022-10-31T12:42:01.272Z,18.09
2022-10-31T12:43:32.441Z,18.08
2022-10-31T12:45:01.078Z,18.05
2022-10-31T12:46:06.105Z,18.09
2022-10-31T12:47:29.254Z,18.14
2022-10-31T12:48:36.821Z,18.12
2022-10-31T12:50:00.988Z,18.13
2022-10-31T12:51:34.724Z,18.19
2022-10-31T12:52:42.644Z,18.20
2022-10-31T12:54:01.087Z,18.25
2022-10-31T12:55:34.732Z,18.25
2022-10-31T12:56:45.208Z,18.26
2022-10-31T12:57:52.311Z,18.28
2022-10-31T12:59:03.977Z,18.31
2022-10-31T13:00:17.813Z,18.32
2022-10-31T13:01:30.466Z,18.35
2022-10-31T13:03:01.803Z,18.37
2022-10-31T13:04:13.178Z,18.37
2022-10-31T13:05:28.266Z,18.36
2022-10-31T13:06:44.326Z,18.35
2022-10-31T13:07:54.089Z,18.33
2022-10-31T13:09:01.661Z,18.36
2022-10-31T13:10:07.442Z,18.38
2022-10-31T13:11:17.738Z,18.41
2022-10-31T13:12:23.226Z,18.42
2022-10-31T13:13:41.086Z,18.37
2022-10-31T13:14:55.700Z,18.32
2022-10-31T13:16:01.027Z,18.32
2022-10-31T13:17:03.412Z,18.33
2022-10-31T13:18:14.194Z,18.30
2022-10-31T13:19:24.613Z,18.23
2022-10-31T13:20:43.011Z,18.23
2022-10-31T13:21:50.183Z,18.21
2022-10-31T13:22:55.991Z,18.23
2022-10-31T13:24:01.443Z,18.24
2022-10-31T13:25:10.734Z,18.22
2022-10-31T13:26:17.127Z,18.21
2022-10-31T13:27:26.418Z,18.20
2022-10-31T13:28:52.977Z,18.21
2022-10-31T13:30:13.416Z,18.21
2022-10-31T13:31:14.897Z,18.19
2022-10-31T13:32:16.574Z,18.19
2022-10-31T13:33:29.613Z,18.20
2022-10-31T13:34:40.035Z,18.15
2022-10-31T13:36:16.099Z,18.12
2022-10-31T13:37:23.623Z,18.13
2022-10-31T13:38:43.221Z,18.09
2022-10-31T13:40:04.267Z,18.06
2022-10-31T13:41:21.346Z,18.01
2022-10-31T13:42:47.141Z,17.99
2022-10-31T13:43:54.760Z,17.99
2022-10-31T13:44:56.274Z,18.01
2022-10-31T13:45:57.795Z,18.02
2022-10-31T13:46:59.563Z,18.02
2022-10-31T13:48:19.284Z,18.04
2022-10-31T13:49:39.083Z,18.02
2022-10-31T13:50:40.657Z,17.97
2022-10-31T13:51:42.115Z,17.97
2022-10-31T13:52:43.923Z,18.01
2022-10-31T13:53:58.307Z,18.03
2022-10-31T13:54:59.842Z,18.06
2022-10-31T13:56:23.356Z,18.09
2022-10-31T13:57:44.140Z,18.14
2022-10-31T13:59:05.408Z,18.15
2022-10-31T14:00:21.427Z,18.14
2022-10-31T14:01:23.630Z,18.19
2022-10-31T14:02:37.683Z,18.25
2022-10-31T14:05:05.089Z,18.28
2022-10-31T14:06:13.685Z,18.30
2022-10-31T14:07:17.909Z,18.30
2022-10-31T14:08:23.451Z,18.30
2022-10-31T14:09:29.344Z,18.29
2022-10-31T14:10:38.208Z,18.27
2022-10-31T14:11:39.654Z,18.23
2022-10-31T14:12:44.363Z,18.22
2022-10-31T14:13:47.216Z,18.20
2022-10-31T14:14:49.900Z,18.19
2022-10-31T14:16:01.476Z,18.15
2022-10-31T14:17:04.081Z,18.15
2022-10-31T14:18:08.650Z,18.15
2022-10-31T14:19:19.208Z,18.17
2022-10-31T14:20:33.718Z,18.16
2022-10-31T14:21:41.603Z,18.16
2022-10-31T14:22:43.552Z,18.11
2022-10-31T14:23:48.341Z,18.10
2022-10-31T14:24:52.322Z,18.11
2022-10-31T14:25:54.115Z,18.12